createdAt,value
2022-09-04T00:00:00.000Z,5.06
2022-09-04T00:15:00.000Z,4.85
2022-09-04T00:30:00.000Z,5.09
2022-09-04T00:45:00.000Z,4.81
2022-09-04T01:00:00.000Z,4.71
2022-09-04T01:15:00.000Z,4.75
2022-09-04T01:30:00.000Z,4.88
2022-09-04T01:45:00.000Z,5.02
2022-09-04T02:15:00.000Z,4
2022-09-04T02:30:00.000Z,6
2022-09-04T02:30:00.000Z,5.16
2022-09-04T02:45:00.000Z,5.29
2022-09-04T03:00:00.000Z,4.67
2022-09-04T03:15:00.000Z,5.09
2022-09-04T03:30:00.000Z,4.68
2022-09-04T03:45:00.000Z,4.87
2022-09-04T04:00:00.000Z,5.51
2022-09-04T04:15:00.000Z,5.06
2022-09-04T04:30:00.000Z,4.89
2022-09-04T04:45:00.000Z,4.72
2022-09-04T05:00:00.000Z,5.53
2022-09-04T05:15:00.000Z,5.15
2022-09-04T05:30:00.000Z,4.8
2022-09-04T05:45:00.000Z,6.24
2022-09-04T06:00:00.000Z,4.65
2022-09-04T06:15:00.000Z,4.61
2022-09-04T06:30:00.000Z,4.85
2022-09-04T06:45:00.000Z,4.58
2022-09-04T07:00:00.000Z,4.85
2022-09-04T07:15:00.000Z,4.39
2022-09-04T07:30:00.000Z,4.59
2022-09-04T07:45:00.000Z,4.56
2022-09-04T08:00:00.000Z,4.36
2022-09-04T08:15:00.000Z,4.49
2022-09-04T08:30:00.000Z,4.78
2022-09-04T08:45:00.000Z,4.46
2022-09-04T09:00:00.000Z,4.69
2022-09-04T09:15:00.000Z,4.26
2022-09-04T09:30:00.000Z,4.62
2022-09-04T09:45:00.000Z,4.24
2022-09-04T10:00:00.000Z,4.35
2022-09-04T10:15:00.000Z,4.32
2022-09-04T10:30:00.000Z,4.95
2022-09-04T10:45:00.000Z,5.42
2022-09-04T11:00:00.000Z,5.29
2022-09-04T11:15:00.000Z,7.52
2022-09-04T11:30:00.000Z,6.24
2022-09-04T11:45:00.000Z,6.02
2022-09-04T12:00:00.000Z,6.05
2022-09-04T12:15:00.000Z,4.92
2022-09-04T12:30:00.000Z,5.4
2022-09-04T12:45:00.000Z,5.79
2022-09-04T13:00:00.000Z,5.62
2022-09-04T13:15:00.000Z,5.33
2022-09-04T13:30:00.000Z,5.34
2022-09-04T13:45:00.000Z,6.55
2022-09-04T14:00:00.000Z,6.85
2022-09-04T14:15:00.000Z,5.62
2022-09-04T14:30:00.000Z,5.8
2022-09-04T14:45:00.000Z,6
2022-09-04T15:15:00.000Z,5
2022-09-04T15:15:00.000Z,5.44
2022-09-04T15:30:00.000Z,5.79
2022-09-04T15:45:00.000Z,5.41
2022-09-04T16:00:00.000Z,5.96
2022-09-04T16:15:00.000Z,5.55
2022-09-04T16:30:00.000Z,5.55
2022-09-04T16:45:00.000Z,6.01
2022-09-04T17:00:00.000Z,7.04
2022-09-04T17:15:00.000Z,6.53
2022-09-04T17:30:00.000Z,7.11
2022-09-04T17:45:00.000Z,7.81
2022-09-04T18:00:00.000Z,14.02
2022-09-04T18:15:00.000Z,9.91
2022-09-04T18:30:00.000Z,9.87
2022-09-04T18:45:00.000Z,8.61
2022-09-04T19:00:00.000Z,9.88
2022-09-04T19:15:00.000Z,18.34
2022-09-04T19:30:00.000Z,23.13
2022-09-04T19:45:00.000Z,11
2022-09-04T20:00:00.000Z,8.36
2022-09-04T20:15:00.000Z,7.72
2022-09-04T20:30:00.000Z,8.09
2022-09-04T20:45:00.000Z,8.76
2022-09-04T21:00:00.000Z,8.34
2022-09-04T21:15:00.000Z,7.88
2022-09-04T21:30:00.000Z,9.15
2022-09-04T21:45:00.000Z,8.66
2022-09-04T22:00:00.000Z,8.58
2022-09-04T22:15:00.000Z,8.92
2022-09-04T22:30:00.000Z,9.44
2022-09-04T22:45:00.000Z,9.41
2022-09-04T23:00:00.000Z,9.75
2022-09-04T23:15:00.000Z,9.82
2022-09-04T23:30:00.000Z,9.04
2022-09-04T23:45:00.000Z,8.61
